Time;durP1;ratioP1;P1;durP2;ratioP2;P2;SDS_P1;SDS_P2;PMS_P1;PMS_P2;Temp;Humidity;BMP_temperature;BMP_pressure;BME280_temperature;BME280_humidity;BME280_pressure;Samples;Min_cycle;Max_cycle;Signal;HPM_P1;HPM_P2
2022/07/04 00:00:48;;;;;;;6.65;4.32;;;14.30;81.60;;;;;;4957936;28;20130;-73
2022/07/04 00:03:14;;;;;;;7.45;4.65;;;14.30;81.40;;;;;;4957632;28;20050;-74
2022/07/04 00:05:40;;;;;;;8.23;4.90;;;14.30;81.30;;;;;;4957562;28;20042;-74
2022/07/04 00:08:05;;;;;;;6.90;5.00;;;14.30;81.60;;;;;;4957464;28;20039;-77
2022/07/04 00:10:31;;;;;;;5.75;4.78;;;14.40;81.80;;;;;;4957603;28;20054;-75
2022/07/04 00:12:57;;;;;;;7.80;4.57;;;14.40;81.70;;;;;;4957464;28;20038;-75
2022/07/04 00:15:23;;;;;;;7.68;4.88;;;14.50;81.80;;;;;;4941853;28;20495;-76
2022/07/04 00:17:49;;;;;;;8.35;4.70;;;14.40;82.10;;;;;;4941645;28;20495;-75
2022/07/04 00:20:15;;;;;;;8.95;5.10;;;14.50;81.70;;;;;;4957804;28;20468;-78
2022/07/04 00:22:42;;;;;;;7.50;4.85;;;14.40;81.70;;;;;;4958047;28;20074;-74
2022/07/04 00:25:08;;;;;;;6.38;5.47;;;14.40;81.80;;;;;;4925988;28;20528;-74
2022/07/04 00:27:33;;;;;;;8.55;5.65;;;14.40;81.80;;;;;;4957532;28;20034;-73
2022/07/04 00:29:59;;;;;;;6.43;5.25;;;14.20;82.10;;;;;;4957438;28;20043;-76
2022/07/04 00:32:25;;;;;;;8.43;5.60;;;14.10;82.70;;;;;;4957689;28;20043;-78
2022/07/04 00:34:50;;;;;;;6.95;5.38;;;14.10;82.90;;;;;;4940732;28;20046;-75
2022/07/04 00:37:16;;;;;;;6.80;5.75;;;14.10;82.40;;;;;;4957620;28;20129;-76
2022/07/04 00:39:42;;;;;;;8.60;5.50;;;14.10;82.70;;;;;;4957275;28;20039;-77
2022/07/04 00:42:08;;;;;;;6.85;5.00;;;14.10;82.40;;;;;;4973624;28;20049;-76
2022/07/04 00:44:36;;;;;;;9.15;6.30;;;14.00;83.50;;;;;;4957450;28;20039;-76
2022/07/04 00:47:03;;;;;;;9.43;6.03;;;14.00;83.20;;;;;;4941782;28;20047;-75
2022/07/04 00:49:29;;;;;;;8.23;5.55;;;14.00;83.20;;;;;;4973246;28;20047;-75
2022/07/04 00:51:55;;;;;;;8.15;6.25;;;14.00;82.90;;;;;;4957131;28;20054;-78
2022/07/04 00:54:26;;;;;;;9.15;6.00;;;14.00;83.10;;;;;;4956969;28;20042;-74
2022/07/04 00:56:52;;;;;;;7.75;6.03;;;14.00;82.90;;;;;;4940942;28;20039;-76
2022/07/04 00:59:18;;;;;;;7.53;6.18;;;14.00;84.00;;;;;;4956964;28;20047;-75
2022/07/04 01:01:44;;;;;;;9.93;5.95;;;14.00;83.70;;;;;;4957442;28;20045;-76
2022/07/04 01:04:09;;;;;;;9.07;5.95;;;14.00;83.40;;;;;;4956940;28;20479;-74
2022/07/04 01:06:35;;;;;;;8.18;5.47;;;14.00;83.50;;;;;;4956991;28;20093;-77
2022/07/04 01:09:01;;;;;;;8.13;5.88;;;14.00;83.40;;;;;;4941207;28;20102;-76
2022/07/04 01:11:27;;;;;;;8.52;5.97;;;14.00;83.80;;;;;;4957271;28;20063;-77
2022/07/04 01:13:56;;;;;;;7.43;5.45;;;14.00;83.40;;;;;;4957116;28;20054;-77
2022/07/04 01:16:24;;;;;;;8.85;6.38;;;14.00;83.70;;;;;;4973282;28;20047;-75
2022/07/04 01:18:51;;;;;;;8.93;5.72;;;14.00;83.60;;;;;;4941023;28;20108;-75
2022/07/04 01:21:18;;;;;;;8.20;5.80;;;14.00;84.50;;;;;;4941281;28;20047;-76
2022/07/04 01:23:44;;;;;;;10.38;6.28;;;14.00;84.50;;;;;;4973480;28;20373;-76
2022/07/04 01:26:10;;;;;;;8.80;6.53;;;13.90;84.70;;;;;;4940747;28;20054;-77
2022/07/04 01:28:35;;;;;;;7.38;5.70;;;14.00;84.40;;;;;;4956688;28;20042;-78
2022/07/04 01:31:01;;;;;;;7.57;5.78;;;14.00;84.30;;;;;;4956946;28;20050;-78
2022/07/04 01:33:27;;;;;;;8.43;5.97;;;13.90;84.90;;;;;;4957226;28;20369;-78
2022/07/04 01:35:53;;;;;;;8.02;5.90;;;13.90;85.00;;;;;;4925186;28;20062;-81
2022/07/04 01:38:18;;;;;;;7.97;5.72;;;13.90;85.60;;;;;;4956897;28;20078;-78
2022/07/04 01:40:45;;;;;;;8.27;6.28;;;13.90;85.50;;;;;;4957256;28;20054;-78
2022/07/04 01:43:11;;;;;;;11.02;6.40;;;13.80;85.60;;;;;;4973300;28;20218;-77
2022/07/04 01:45:40;;;;;;;10.18;6.53;;;13.80;85.70;;;;;;4956681;28;20143;-76
2022/07/04 01:48:06;;;;;;;8.27;4.57;;;13.90;85.50;;;;;;4928735;28;20126;-75
2022/07/04 01:50:32;;;;;;;10.55;6.55;;;13.90;85.30;;;;;;4944809;28;20448;-78
2022/07/04 01:52:58;;;;;;;7.10;5.82;;;13.80;86.80;;;;;;4960310;28;20049;-75
2022/07/04 01:55:24;;;;;;;11.05;6.82;;;13.80;86.10;;;;;;4944167;28;20125;-77
2022/07/04 01:57:49;;;;;;;10.10;6.32;;;13.80;86.80;;;;;;4944368;28;20065;-75
2022/07/04 02:02:59;;;;;;;11.13;5.90;;;13.70;86.70;;;;;;4962588;28;20179;-75
2022/07/04 02:05:25;;;;;;;7.97;5.30;;;13.70;87.10;;;;;;4960145;28;20136;-78
2022/07/04 02:07:51;;;;;;;6.53;5.80;;;13.70;86.90;;;;;;4960310;28;20039;-77
2022/07/04 02:10:17;;;;;;;7.50;5.60;;;13.60;87.40;;;;;;4960141;28;20046;-77
2022/07/04 02:13:01;;;;;;;10.70;6.25;;;13.60;87.70;;;;;;4960104;28;20049;-75
2022/07/04 02:15:31;;;;;;;7.47;5.20;;;13.60;87.90;;;;;;4960175;28;20046;-75
2022/07/04 02:17:57;;;;;;;10.13;5.43;;;13.50;88.20;;;;;;4959792;28;20054;-76
2022/07/04 02:20:24;;;;;;;10.93;6.20;;;13.60;87.40;;;;;;4943944;28;20395;-76
2022/07/04 02:22:49;;;;;;;8.82;5.88;;;13.60;88.60;;;;;;4976356;28;20047;-77
2022/07/04 02:25:15;;;;;;;8.35;5.60;;;13.60;88.20;;;;;;4959895;28;20484;-77
2022/07/04 02:27:41;;;;;;;10.32;6.38;;;13.60;87.80;;;;;;4960239;28;20590;-77
2022/07/04 02:30:07;;;;;;;9.70;5.88;;;13.60;88.50;;;;;;4976013;28;20514;-77
2022/07/04 02:32:33;;;;;;;10.15;6.30;;;13.60;88.50;;;;;;4927973;28;20121;-75
2022/07/04 02:34:59;;;;;;;8.38;5.72;;;13.70;88.00;;;;;;4975381;28;20045;-78
2022/07/04 02:37:25;;;;;;;9.35;5.75;;;13.70;88.00;;;;;;4959467;28;20039;-77
2022/07/04 02:39:50;;;;;;;8.95;5.88;;;13.70;88.00;;;;;;4959187;28;20129;-78
2022/07/04 02:42:16;;;;;;;9.48;6.40;;;13.70;87.90;;;;;;4959780;28;20042;-75
2022/07/04 02:44:43;;;;;;;12.15;6.78;;;13.70;88.20;;;;;;4959440;28;20042;-75
2022/07/04 02:47:08;;;;;;;9.32;6.30;;;13.70;87.80;;;;;;4943468;28;20046;-76
2022/07/04 02:49:34;;;;;;;8.75;5.50;;;13.70;88.60;;;;;;4959212;28;20142;-76
2022/07/04 02:52:00;;;;;;;9.07;6.70;;;13.70;88.20;;;;;;4959258;28;20035;-77
2022/07/04 02:54:25;;;;;;;10.70;6.18;;;13.70;88.30;;;;;;4959514;28;20046;-76
2022/07/04 02:56:51;;;;;;;9.15;5.82;;;13.70;88.40;;;;;;4959454;28;20483;-76
2022/07/04 02:59:17;;;;;;;15.63;7.00;;;13.70;88.40;;;;;;4958575;28;20046;-77
2022/07/04 03:01:42;;;;;;;11.82;6.32;;;13.70;88.40;;;;;;4959159;28;20129;-79
2022/07/04 03:04:08;;;;;;;8.57;5.70;;;13.70;88.60;;;;;;4959161;28;20043;-76
2022/07/04 03:06:34;;;;;;;10.07;5.68;;;13.70;88.60;;;;;;4927522;28;20383;-77
2022/07/04 03:08:59;;;;;;;12.73;6.03;;;13.70;88.60;;;;;;4959113;28;20546;-76
2022/07/04 03:11:25;;;;;;;12.85;5.90;;;13.70;88.10;;;;;;4958669;28;20439;-77
2022/07/04 03:13:51;;;;;;;9.57;5.97;;;13.70;88.00;;;;;;4958640;28;20058;-77
2022/07/04 03:16:16;;;;;;;7.68;5.00;;;13.70;88.80;;;;;;4958492;28;20546;-76
2022/07/04 03:18:42;;;;;;;9.32;5.72;;;13.70;88.50;;;;;;4942422;28;20054;-76
2022/07/04 03:21:08;;;;;;;7.85;5.32;;;13.80;89.20;;;;;;4943141;28;20049;-78
2022/07/04 03:23:34;;;;;;;7.90;5.68;;;13.80;89.00;;;;;;4927038;28;20058;-74
2022/07/04 03:26:00;;;;;;;9.75;6.63;;;13.80;89.20;;;;;;4958830;28;20042;-77
2022/07/04 03:28:27;;;;;;;8.93;5.65;;;13.80;89.00;;;;;;4974957;28;20058;-76
2022/07/04 03:30:53;;;;;;;10.32;6.28;;;13.90;88.80;;;;;;4942617;28;20043;-76
2022/07/04 03:33:19;;;;;;;8.07;5.68;;;13.90;88.80;;;;;;4974286;28;20053;-77
2022/07/04 03:35:44;;;;;;;9.52;6.85;;;13.90;88.90;;;;;;4958516;28;20039;-78
2022/07/04 03:38:10;;;;;;;9.60;6.22;;;13.90;89.50;;;;;;4958450;28;20074;-77
2022/07/04 03:40:38;;;;;;;11.52;7.13;;;13.90;89.60;;;;;;4942419;28;20461;-77
2022/07/04 03:43:05;;;;;;;8.85;6.68;;;14.00;88.80;;;;;;4958416;28;20050;-77
2022/07/04 03:45:30;;;;;;;9.55;6.80;;;14.00;89.40;;;;;;4958414;28;20045;-74
2022/07/04 03:47:56;;;;;;;10.80;7.13;;;14.00;88.80;;;;;;4958317;28;20042;-74
2022/07/04 03:50:22;;;;;;;10.75;6.03;;;14.00;90.00;;;;;;4974339;28;20039;-76
2022/07/04 03:52:48;;;;;;;13.52;6.97;;;14.00;89.90;;;;;;4926052;28;20043;-79
2022/07/04 03:55:15;;;;;;;10.50;6.60;;;14.00;90.40;;;;;;4942259;28;20043;-76
2022/07/04 03:57:41;;;;;;;10.25;6.38;;;14.00;90.30;;;;;;4957921;28;20042;-77
2022/07/04 04:00:07;;;;;;;8.45;6.95;;;14.00;90.60;;;;;;4974225;28;20049;-77
2022/07/04 04:02:34;;;;;;;11.02;7.10;;;14.00;90.50;;;;;;4958302;28;20118;-76
2022/07/04 04:07:44;;;;;;;9.63;6.65;;;14.10;90.80;;;;;;4958125;28;20043;-76
2022/07/04 04:10:10;;;;;;;7.35;6.28;;;14.00;90.80;;;;;;4941889;28;20534;-75
2022/07/04 04:12:35;;;;;;;9.45;5.65;;;14.00;90.30;;;;;;4957751;28;20043;-75
2022/07/04 04:15:02;;;;;;;8.70;5.75;;;14.10;90.30;;;;;;4957577;28;20061;-77
2022/07/04 04:17:28;;;;;;;9.40;5.80;;;14.10;90.20;;;;;;4957993;28;20047;-75
2022/07/04 04:19:54;;;;;;;9.70;5.75;;;14.20;89.90;;;;;;4957575;28;20510;-76
2022/07/04 04:22:19;;;;;;;11.57;6.30;;;14.30;89.70;;;;;;4926307;28;20130;-78
2022/07/04 04:24:45;;;;;;;9.88;5.88;;;14.30;90.20;;;;;;4957515;28;20035;-75
2022/07/04 04:27:11;;;;;;;6.13;4.70;;;14.40;90.10;;;;;;4957797;28;20066;-77
2022/07/04 04:29:36;;;;;;;7.50;4.50;;;14.40;89.80;;;;;;4957485;28;20119;-75
2022/07/04 04:32:02;;;;;;;8.15;5.45;;;14.50;89.70;;;;;;4957850;28;20046;-76
2022/07/04 04:34:28;;;;;;;10.18;5.05;;;14.50;89.50;;;;;;4957934;28;20372;-75
2022/07/04 04:36:53;;;;;;;9.35;5.07;;;14.50;89.60;;;;;;4957549;28;20118;-77
2022/07/04 04:39:19;;;;;;;9.68;5.60;;;14.60;90.10;;;;;;4957525;28;20443;-77
2022/07/04 04:41:45;;;;;;;8.57;5.38;;;14.60;89.60;;;;;;4941773;28;20039;-77
2022/07/04 04:44:10;;;;;;;9.95;5.70;;;14.60;89.80;;;;;;4957501;28;20047;-77
2022/07/04 04:46:36;;;;;;;10.52;4.63;;;14.70;89.80;;;;;;4957862;28;20042;-78
2022/07/04 04:49:02;;;;;;;11.32;4.97;;;14.70;90.10;;;;;;4957346;28;20122;-78
2022/07/04 04:51:28;;;;;;;8.70;4.93;;;14.70;90.00;;;;;;4941785;28;20046;-78
2022/07/04 04:53:53;;;;;;;6.65;4.43;;;14.80;89.70;;;;;;4957273;28;20042;-75
2022/07/04 04:56:19;;;;;;;9.32;4.10;;;14.90;89.50;;;;;;4925780;28;20047;-77
2022/07/04 04:58:45;;;;;;;8.80;4.57;;;14.90;88.90;;;;;;4941167;28;20043;-79
2022/07/04 05:01:10;;;;;;;11.00;3.72;;;15.00;89.40;;;;;;4957429;28;20053;-77
2022/07/04 05:03:36;;;;;;;7.75;4.38;;;15.10;88.80;;;;;;4941706;28;20134;-80
2022/07/04 05:06:02;;;;;;;8.93;4.55;;;15.20;89.20;;;;;;4940826;28;20042;-76
2022/07/04 05:08:27;;;;;;;6.65;3.75;;;15.30;88.80;;;;;;4956821;28;20042;-77
2022/07/04 05:10:53;;;;;;;8.57;4.05;;;15.40;88.50;;;;;;4956784;28;20042;-76
2022/07/04 05:13:19;;;;;;;10.48;3.85;;;15.50;88.70;;;;;;4956633;28;20070;-76
2022/07/04 05:15:46;;;;;;;7.25;4.18;;;15.50;88.40;;;;;;4973098;28;20109;-78
2022/07/04 05:18:13;;;;;;;6.95;3.00;;;15.60;88.40;;;;;;4957000;28;20125;-77
2022/07/04 05:20:39;;;;;;;7.57;3.60;;;15.70;88.40;;;;;;4946387;28;20146;-77
2022/07/04 05:23:06;;;;;;;8.95;3.63;;;15.80;88.20;;;;;;4964184;28;20099;-75
2022/07/04 05:25:32;;;;;;;9.65;4.13;;;15.90;88.20;;;;;;4980174;28;20046;-79
2022/07/04 05:27:58;;;;;;;7.05;3.80;;;16.00;87.90;;;;;;4963972;28;20042;-79
2022/07/04 05:30:24;;;;;;;9.88;3.25;;;16.00;88.10;;;;;;4979835;28;20489;-76
2022/07/04 05:32:50;;;;;;;7.20;3.75;;;16.10;88.50;;;;;;4996563;28;20125;-80
2022/07/04 05:35:15;;;;;;;8.32;3.63;;;16.20;88.20;;;;;;4996261;28;20052;-78
2022/07/04 05:37:41;;;;;;;7.68;3.20;;;16.30;87.80;;;;;;4980065;28;20042;-79
2022/07/04 05:40:08;;;;;;;7.00;3.63;;;16.40;88.20;;;;;;4980170;28;20066;-79
2022/07/04 05:42:36;;;;;;;7.53;3.45;;;16.40;88.20;;;;;;4980026;28;20509;-79
2022/07/04 05:45:03;;;;;;;11.27;3.58;;;16.50;87.80;;;;;;4979746;28;20044;-76
2022/07/04 05:47:28;;;;;;;11.98;3.63;;;16.70;87.70;;;;;;4995579;28;20070;-76
2022/07/04 05:49:54;;;;;;;6.78;3.30;;;16.80;87.70;;;;;;4979957;28;20105;-76
2022/07/04 05:52:20;;;;;;;10.32;3.08;;;16.90;87.70;;;;;;4979766;28;20129;-73
2022/07/04 05:54:45;;;;;;;8.90;3.40;;;17.00;86.80;;;;;;4979867;28;20086;-78
2022/07/04 05:57:11;;;;;;;7.53;3.30;;;17.00;86.70;;;;;;4979576;28;20383;-75
2022/07/04 05:59:37;;;;;;;11.48;3.55;;;17.10;87.00;;;;;;4976847;28;20054;-76
2022/07/04 06:02:03;;;;;;;9.73;3.30;;;17.20;86.10;;;;;;4948995;28;20116;-78
2022/07/04 06:04:28;;;;;;;7.63;2.97;;;17.10;85.50;;;;;;4978036;28;20066;-78
2022/07/04 06:06:54;;;;;;;10.20;3.88;;;17.10;85.40;;;;;;4972561;28;20077;-78
2022/07/04 06:09:20;;;;;;;9.35;3.95;;;17.10;86.10;;;;;;4980842;28;20542;-76
2022/07/04 06:11:45;;;;;;;6.60;3.80;;;17.10;85.50;;;;;;4957916;28;20144;-76
2022/07/04 06:14:11;;;;;;;6.78;3.25;;;17.20;85.30;;;;;;4973844;28;20077;-80
2022/07/04 06:16:37;;;;;;;7.22;2.80;;;17.20;85.10;;;;;;4956927;28;20389;-78
2022/07/04 06:19:03;;;;;;;7.00;3.70;;;17.40;84.30;;;;;;4969532;28;20479;-75
2022/07/04 06:21:28;;;;;;;8.82;3.25;;;17.50;83.50;;;;;;4972319;28;20068;-77
2022/07/04 06:23:54;;;;;;;9.65;3.40;;;17.70;83.30;;;;;;4957600;28;20145;-76
2022/07/04 06:26:20;;;;;;;5.15;3.05;;;17.80;83.40;;;;;;4974398;28;20082;-78
2022/07/04 06:28:46;;;;;;;6.05;3.28;;;17.90;82.20;;;;;;4973515;28;20100;-77
2022/07/04 06:31:12;;;;;;;4.53;2.92;;;17.90;81.40;;;;;;4978315;28;20054;-77
2022/07/04 06:36:22;;;;;;;5.22;3.00;;;18.00;80.60;;;;;;4974035;28;20450;-74
2022/07/04 06:38:48;;;;;;;3.05;2.38;;;18.00;80.90;;;;;;4940648;28;20050;-76
2022/07/04 06:41:13;;;;;;;7.68;3.00;;;18.00;80.00;;;;;;4973596;28;21108;-75
2022/07/04 06:43:39;;;;;;;4.68;2.78;;;18.00;80.00;;;;;;4973031;28;20046;-76
2022/07/04 06:46:05;;;;;;;3.08;1.92;;;18.10;79.60;;;;;;4972764;28;20364;-75
2022/07/04 06:48:31;;;;;;;4.80;1.92;;;18.10;79.50;;;;;;4972009;28;20046;-79
2022/07/04 06:50:56;;;;;;;5.45;2.05;;;18.20;79.00;;;;;;4955570;28;20429;-77
2022/07/04 06:53:22;;;;;;;5.15;1.70;;;18.30;78.40;;;;;;4956719;28;20149;-77
2022/07/04 06:55:48;;;;;;;4.78;1.65;;;18.30;78.90;;;;;;4957385;28;20058;-75
2022/07/04 06:58:14;;;;;;;3.13;1.25;;;18.40;78.00;;;;;;4988640;28;20411;-76
2022/07/04 07:00:41;;;;;;;4.28;1.25;;;18.50;76.40;;;;;;4970649;28;20054;-76
2022/07/04 07:03:07;;;;;;;3.10;1.40;;;18.50;75.50;;;;;;4972640;28;20409;-77
2022/07/04 07:05:36;;;;;;;3.90;1.10;;;18.60;75.20;;;;;;4995417;28;20038;-75
2022/07/04 07:08:05;;;;;;;4.57;1.10;;;18.70;74.40;;;;;;4970910;28;20042;-76
2022/07/04 07:10:32;;;;;;;3.80;1.20;;;18.80;72.50;;;;;;4952475;28;20052;-77
2022/07/04 07:12:59;;;;;;;2.30;1.08;;;18.80;72.50;;;;;;4957467;28;20053;-76
2022/07/04 07:15:25;;;;;;;3.35;0.90;;;18.80;72.20;;;;;;4957400;28;20105;-77
2022/07/04 07:17:50;;;;;;;1.35;1.00;;;18.90;71.40;;;;;;4996863;28;20284;-74
2022/07/04 07:20:16;;;;;;;2.40;1.25;;;18.90;71.00;;;;;;4970885;28;20796;-79
2022/07/04 07:22:42;;;;;;;3.17;1.00;;;18.90;70.80;;;;;;4971977;28;20046;-74
2022/07/04 07:25:09;;;;;;;2.20;1.52;;;18.90;70.80;;;;;;4972251;28;20093;-77
2022/07/04 07:27:36;;;;;;;2.08;0.95;;;18.80;71.70;;;;;;4972066;28;20045;-77
2022/07/04 07:30:02;;;;;;;2.25;0.93;;;18.80;71.80;;;;;;4989093;28;20042;-77
2022/07/04 07:32:28;;;;;;;3.95;1.50;;;18.80;71.50;;;;;;4979412;28;20057;-77
2022/07/04 07:34:54;;;;;;;4.97;1.20;;;18.90;72.00;;;;;;4941802;28;20366;-75
2022/07/04 07:37:21;;;;;;;1.38;0.88;;;18.90;72.30;;;;;;4956088;28;20119;-74
2022/07/04 07:39:47;;;;;;;2.17;0.80;;;19.00;71.40;;;;;;4992630;28;20650;-75
2022/07/04 07:42:13;;;;;;;1.92;0.82;;;19.10;70.20;;;;;;4941094;28;20510;-74
2022/07/04 07:44:39;;;;;;;2.85;0.80;;;19.20;70.00;;;;;;4956554;28;20138;-77
2022/07/04 07:47:05;;;;;;;3.67;1.10;;;19.10;70.80;;;;;;4974248;28;20076;-76
2022/07/04 07:49:37;;;;;;;2.22;1.00;;;19.10;70.60;;;;;;4954372;28;20069;-80
2022/07/04 07:52:03;;;;;;;5.35;1.33;;;19.20;70.80;;;;;;4953756;28;20044;-77
2022/07/04 07:54:29;;;;;;;6.85;1.10;;;19.30;69.70;;;;;;4972135;28;20489;-77
2022/07/04 07:56:55;;;;;;;3.53;1.13;;;19.20;70.00;;;;;;4994788;28;20050;-75
2022/07/04 07:59:20;;;;;;;4.18;1.48;;;19.30;70.40;;;;;;4992341;28;20081;-73
2022/07/04 08:01:46;;;;;;;1.50;1.23;;;19.30;70.60;;;;;;4955343;28;20746;-78
2022/07/04 08:06:56;;;;;;;;;;;19.40;69.00;;;;;;4971983;28;20054;-75
2022/07/04 08:09:22;;;;;;;1.80;1.17;;;19.40;68.70;;;;;;4970577;28;19926;-76
2022/07/04 08:11:47;;;;;;;3.03;1.40;;;19.50;68.30;;;;;;4956475;28;20052;-78
2022/07/04 08:14:13;;;;;;;3.63;1.20;;;19.60;67.70;;;;;;4971611;28;20070;-76
2022/07/04 08:16:40;;;;;;;4.65;1.50;;;19.70;68.20;;;;;;4955890;28;20113;-77
2022/07/04 08:19:06;;;;;;;4.35;1.80;;;19.80;67.50;;;;;;4970322;28;20053;-78
2022/07/04 08:21:32;;;;;;;2.92;1.00;;;19.70;67.40;;;;;;4970618;28;20129;-74
2022/07/04 08:23:57;;;;;;;5.07;1.25;;;19.70;67.70;;;;;;4972048;28;20125;-75
2022/07/04 08:26:23;;;;;;;4.43;1.33;;;19.70;67.10;;;;;;4971336;28;20046;-76
2022/07/04 08:28:51;;;;;;;3.20;1.40;;;19.70;67.90;;;;;;4955764;28;20074;-77
2022/07/04 08:31:18;;;;;;;3.65;1.50;;;19.70;66.80;;;;;;4955631;28;20172;-77
2022/07/04 08:33:46;;;;;;;2.63;1.25;;;19.90;67.00;;;;;;4971012;28;20909;-77
2022/07/04 08:36:12;;;;;;;4.55;1.77;;;20.00;66.60;;;;;;4970010;28;20042;-79
2022/07/04 08:38:38;;;;;;;3.42;1.10;;;20.10;65.70;;;;;;4969848;28;20057;-79
2022/07/04 08:41:04;;;;;;;2.97;1.30;;;20.10;65.50;;;;;;4956543;28;20039;-78
2022/07/04 08:43:35;;;;;;;5.65;2.05;;;20.30;64.20;;;;;;4976543;28;20081;-76
2022/07/04 08:46:04;;;;;;;6.88;0.90;;;20.20;64.30;;;;;;4976127;28;20054;-79
2022/07/04 08:48:31;;;;;;;4.07;1.10;;;20.30;63.90;;;;;;4959899;28;20108;-76
2022/07/04 08:51:16;;;;;;;4.75;1.20;;;20.40;63.30;;;;;;4976071;28;20054;-75
2022/07/04 08:53:50;;;;;;;2.13;1.20;;;20.50;62.80;;;;;;4976470;28;20046;-76
2022/07/04 08:59:04;;;;;;;5.82;1.60;;;20.60;63.70;;;;;;4976185;28;20161;-77
2022/07/04 09:01:31;;;;;;;4.18;2.08;;;20.70;64.10;;;;;;4976360;28;20100;-75
2022/07/04 09:03:57;;;;;;;3.17;1.63;;;20.60;64.70;;;;;;4976084;28;20047;-78
2022/07/04 09:06:24;;;;;;;5.43;1.60;;;20.40;65.50;;;;;;4976048;28;20039;-77
2022/07/04 09:08:51;;;;;;;3.13;1.92;;;20.30;65.90;;;;;;4959846;28;20558;-78
2022/07/04 09:11:18;;;;;;;3.15;1.58;;;20.10;66.50;;;;;;4976012;28;20054;-78
2022/07/04 09:13:44;;;;;;;1.85;1.35;;;20.20;66.70;;;;;;4975848;28;20062;-76
2022/07/04 09:16:09;;;;;;;6.65;1.58;;;20.40;66.70;;;;;;4992068;28;20108;-79
2022/07/04 09:18:36;;;;;;;3.90;1.40;;;20.50;64.90;;;;;;4959964;28;20089;-77
2022/07/04 09:21:07;;;;;;;3.28;1.70;;;20.60;64.80;;;;;;4975944;28;20046;-77
2022/07/04 09:23:41;;;;;;;2.60;1.30;;;20.90;65.40;;;;;;4976050;28;20493;-77
2022/07/04 09:26:20;;;;;;;;;;;21.00;64.60;;;;;;4976493;28;20120;-76
2022/07/04 09:28:57;;;;;;;4.65;1.55;;;21.10;63.60;;;;;;4975847;28;19924;-77
2022/07/04 09:31:31;;;;;;;3.70;1.40;;;21.00;63.60;;;;;;4975721;28;20058;-78
2022/07/04 09:33:59;;;;;;;2.00;1.08;;;21.10;62.60;;;;;;4975751;28;20073;-78
2022/07/04 09:36:31;;;;;;;3.70;1.40;;;21.10;62.10;;;;;;4975693;28;20045;-79
2022/07/04 09:39:21;;;;;;;5.57;1.38;;;21.00;61.60;;;;;;4975682;28;20072;-79
2022/07/04 09:41:53;;;;;;;4.70;1.42;;;21.00;62.00;;;;;;4960330;28;20034;-76
2022/07/04 09:44:20;;;;;;;4.85;1.48;;;21.00;61.00;;;;;;4975653;28;20121;-78
2022/07/04 09:46:46;;;;;;;4.00;1.30;;;21.10;61.90;;;;;;4975560;28;20430;-77
2022/07/04 09:49:11;;;;;;;2.85;1.70;;;21.00;61.60;;;;;;4959601;28;20061;-79
2022/07/04 09:51:44;;;;;;;5.22;1.60;;;21.20;63.10;;;;;;4943651;28;20093;-74
2022/07/04 09:54:18;;;;;;;1.58;1.00;;;21.20;63.00;;;;;;4975638;28;20546;-77
2022/07/04 09:56:46;;;;;;;3.55;1.20;;;21.10;58.00;;;;;;4975918;28;20474;-77
2022/07/04 09:59:11;;;;;;;3.83;1.15;;;21.10;56.40;;;;;;4975840;28;20449;-77
2022/07/04 10:01:39;;;;;;;3.08;0.75;;;21.30;57.40;;;;;;4975679;28;20042;-78
2022/07/04 10:04:06;;;;;;;2.35;0.80;;;21.50;58.40;;;;;;4975388;28;20077;-79
2022/07/04 10:06:33;;;;;;;1.83;1.30;;;21.60;55.90;;;;;;4959349;28;20128;-77
2022/07/04 10:09:18;;;;;;;1.35;0.77;;;21.70;57.20;;;;;;4978608;28;20053;-76
2022/07/04 10:11:47;;;;;;;2.45;1.20;;;21.80;56.80;;;;;;4979175;28;20042;-75
2022/07/04 10:14:14;;;;;;;3.42;1.55;;;21.90;57.50;;;;;;4962401;28;20499;-76
2022/07/04 10:16:40;;;;;;;3.47;1.45;;;21.80;54.40;;;;;;4978708;28;20051;-77
2022/07/04 10:19:07;;;;;;;1.48;0.90;;;21.90;53.70;;;;;;4963453;28;20495;-76
2022/07/04 10:21:33;;;;;;;1.40;0.60;;;22.00;54.20;;;;;;4980554;28;20487;-74
2022/07/04 10:24:00;;;;;;;4.60;1.48;;;22.00;53.60;;;;;;4979074;28;20042;-78
2022/07/04 10:26:29;;;;;;;3.78;1.20;;;21.90;53.00;;;;;;4978760;28;20120;-78
2022/07/04 10:28:55;;;;;;;2.35;1.50;;;22.00;53.20;;;;;;4978766;28;20521;-75
2022/07/04 10:31:23;;;;;;;2.17;1.13;;;22.20;53.70;;;;;;4978654;28;20050;-76
2022/07/04 10:33:49;;;;;;;1.48;0.98;;;22.30;53.50;;;;;;4978605;28;20046;-77
2022/07/04 10:36:18;;;;;;;2.97;1.60;;;22.30;52.40;;;;;;4978991;28;20063;-77
2022/07/04 10:39:02;;;;;;;0.90;0.75;;;22.40;53.90;;;;;;4979582;28;20402;-75
2022/07/04 10:41:29;;;;;;;2.78;0.98;;;22.30;52.20;;;;;;4979501;28;20049;-73
2022/07/04 10:44:02;;;;;;;1.63;0.82;;;22.30;52.40;;;;;;4980139;28;20121;-75
2022/07/04 10:46:36;;;;;;;2.67;0.90;;;22.10;51.40;;;;;;4978975;28;20046;-72
2022/07/04 10:49:14;;;;;;;2.90;1.10;;;21.80;51.40;;;;;;4978161;28;20046;-72
2022/07/04 10:51:52;;;;;;;3.00;1.20;;;21.80;51.10;;;;;;4962372;28;20072;-76
2022/07/04 10:54:31;;;;;;;2.03;0.90;;;21.80;51.50;;;;;;4978129;28;20050;-75
2022/07/04 10:57:21;;;;;;;2.05;0.93;;;21.80;50.60;;;;;;4978089;28;20046;-76
2022/07/04 10:59:57;;;;;;;2.35;0.80;;;21.80;51.10;;;;;;4972817;28;20054;-76
2022/07/04 11:02:25;;;;;;;1.73;0.80;;;21.90;49.60;;;;;;4961829;28;20092;-77
2022/07/04 11:04:57;;;;;;;2.00;0.68;;;21.90;49.00;;;;;;4978139;28;20038;-79
2022/07/04 11:07:39;;;;;;;2.55;1.10;;;22.00;48.70;;;;;;4978036;28;20042;-77
2022/07/04 11:10:33;;;;;;;3.30;1.00;;;22.00;49.20;;;;;;4977630;28;20525;-76
2022/07/04 11:12:57;;;;;;;2.22;1.00;;;22.00;50.90;;;;;;4977239;28;20137;-77
2022/07/04 11:15:22;;;;;;;2.10;1.00;;;22.20;49.90;;;;;;4977333;28;20482;-77
2022/07/04 11:17:51;;;;;;;2.60;1.15;;;22.30;51.10;;;;;;4994212;28;20132;-75
2022/07/04 11:20:17;;;;;;;1.90;0.98;;;22.40;50.70;;;;;;4961132;28;20047;-77
2022/07/04 11:22:43;;;;;;;3.15;1.10;;;22.50;50.50;;;;;;4977506;28;20043;-76
2022/07/04 11:25:11;;;;;;;2.88;0.98;;;22.50;48.80;;;;;;4977319;28;20054;-77
2022/07/04 11:27:38;;;;;;;6.38;1.30;;;22.40;48.60;;;;;;4977778;28;20046;-77
2022/07/04 11:30:04;;;;;;;3.00;0.80;;;22.40;47.80;;;;;;4977534;28;20053;-75
2022/07/04 11:32:32;;;;;;;2.00;0.90;;;22.30;48.40;;;;;;4977349;28;20041;-75
2022/07/04 11:34:58;;;;;;;1.73;1.05;;;22.20;48.10;;;;;;4962610;28;20046;-74
2022/07/04 11:37:24;;;;;;;2.78;1.08;;;22.20;47.80;;;;;;4961645;28;20057;-76
2022/07/04 11:45:02;;;;;;;23.35;3.45;;;22.20;48.20;;;;;;4994684;28;20390;-76
2022/07/04 11:45:24;;;;;;;12.05;2.63;;;22.30;48.50;;;;;;4976952;28;20051;-76
2022/07/04 11:47:50;;;;;;;6.63;1.17;;;22.30;47.60;;;;;;4977166;28;20045;-77
2022/07/04 11:50:18;;;;;;;5.03;1.10;;;22.30;46.90;;;;;;4977116;28;20046;-76
2022/07/04 11:52:51;;;;;;;4.97;1.00;;;22.30;47.10;;;;;;4977051;28;20054;-76
2022/07/04 11:55:17;;;;;;;3.25;0.80;;;22.50;47.50;;;;;;4976953;28;20042;-76
2022/07/04 11:57:52;;;;;;;2.30;0.88;;;22.60;47.50;;;;;;4976951;28;20069;-77
2022/07/04 12:00:20;;;;;;;5.05;0.95;;;22.70;47.30;;;;;;4976882;28;20483;-77
2022/07/04 12:02:48;;;;;;;3.95;1.40;;;22.80;48.00;;;;;;4976839;28;20348;-77
2022/07/04 12:05:16;;;;;;;2.58;0.70;;;22.80;48.80;;;;;;4976793;28;20164;-77
2022/07/04 12:07:44;;;;;;;1.85;0.90;;;22.80;48.40;;;;;;4976652;28;20491;-78
2022/07/04 12:10:18;;;;;;;2.97;0.80;;;22.80;47.30;;;;;;4976669;28;20039;-76
2022/07/04 12:12:57;;;;;;;;;;;22.60;48.70;;;;;;4977355;28;20042;-77
2022/07/04 12:15:24;;;;;;;2.80;0.70;;;22.40;49.50;;;;;;4976366;28;20370;-76
2022/07/04 12:17:54;;;;;;;3.80;0.80;;;22.50;48.50;;;;;;4960718;28;20439;-78
2022/07/04 12:20:21;;;;;;;1.70;0.85;;;22.50;49.10;;;;;;4976528;28;20057;-77
2022/07/04 12:22:56;;;;;;;2.45;0.80;;;22.50;49.00;;;;;;4976444;28;20125;-77
2022/07/04 12:25:29;;;;;;;2.72;0.90;;;22.60;49.20;;;;;;4976436;28;20041;-77
2022/07/04 12:28:01;;;;;;;16.30;2.13;;;22.70;48.70;;;;;;4976372;28;20042;-76
2022/07/04 12:30:32;;;;;;;7.82;1.75;;;22.70;47.70;;;;;;4975890;28;20038;-77
2022/07/04 12:33:04;;;;;;;5.13;1.25;;;22.80;46.80;;;;;;4976577;28;20041;-77
2022/07/04 12:35:38;;;;;;;3.55;1.20;;;22.90;47.90;;;;;;4976645;28;20038;-76
2022/07/04 12:38:13;;;;;;;5.15;0.95;;;23.10;47.80;;;;;;4960397;28;20043;-77
2022/07/04 12:41:01;;;;;;;2.03;0.60;;;22.90;48.00;;;;;;4976401;28;20042;-76
2022/07/04 12:43:43;;;;;;;0.98;0.50;;;22.90;47.00;;;;;;4976282;28;20038;-77
2022/07/04 12:46:15;;;;;;;4.15;1.00;;;22.80;46.10;;;;;;4960397;28;20515;-78
2022/07/04 12:48:41;;;;;;;1.20;0.75;;;22.80;47.00;;;;;;4976260;28;20050;-75
2022/07/04 12:51:18;;;;;;;1.05;0.63;;;22.80;47.40;;;;;;4976156;28;20052;-77
2022/07/04 12:53:45;;;;;;;2.83;0.80;;;22.70;47.70;;;;;;4976515;28;20038;-76
2022/07/04 12:56:31;;;;;;;1.38;0.70;;;22.90;48.70;;;;;;4976004;28;20046;-75
2022/07/04 12:59:04;;;;;;;1.35;0.70;;;22.90;47.60;;;;;;4972206;28;20046;-77
2022/07/04 13:01:30;;;;;;;3.55;0.88;;;22.90;47.70;;;;;;4970785;28;20038;-76
2022/07/04 13:03:57;;;;;;;2.00;0.70;;;22.90;47.60;;;;;;4995051;28;20034;-77